SGP weather

Shay Gap Airport
Shay Gap, Western Australia, Australia

Public forecast

Using degrees Celsius for public forecast. Weather courtesy of forecast.io.

Closest aviation weather report (METAR) to Shay Gap Airport

Closest report is Port Hedland International Airport, 85.3 nm (158.0 km) W. Retrieved 2020/01/28 19:30 UTC (0 seconds ago):

YPPD 281930Z AUTO 26009KT 9999 // NCD 29/26 Q1005 RF000/0000

Closest aviation forecast (TAF) to Shay Gap Airport

Closest forecast is Port Hedland International Airport, 85.3 nm (158.0 km) W. Retrieved 2020/01/28 18:37 UTC (34 minutes ago):

TAF YPPD 281721Z 2818/2918 27008KT 9999 SCT012 FM290000 31014KT CAVOK FM291600 27008KT 9999 FEW012